sensor_id;sensor_type;location;lat;lon;timestamp;P1;durP1;ratioP1;P2;durP2;ratioP2
75760;SDS011;64373;46.136;8.830;2023-01-29T00:00:48;5.93;;;2.75;;
75760;SDS011;64373;46.136;8.830;2023-01-29T00:03:14;7.68;;;3.83;;
75760;SDS011;64373;46.136;8.830;2023-01-29T00:05:40;8.02;;;4.03;;
75760;SDS011;64373;46.136;8.830;2023-01-29T00:08:06;5.93;;;3.35;;
75760;SDS011;64373;46.136;8.830;2023-01-29T00:10:32;7.05;;;3.60;;
75760;SDS011;64373;46.136;8.830;2023-01-29T00:12:57;7.55;;;3.28;;
75760;SDS011;64373;46.136;8.830;2023-01-29T00:15:23;7.53;;;2.92;;
75760;SDS011;64373;46.136;8.830;2023-01-29T00:17:48;8.93;;;4.00;;
75760;SDS011;64373;46.136;8.830;2023-01-29T00:20:14;10.25;;;4.65;;
75760;SDS011;64373;46.136;8.830;2023-01-29T00:22:40;9.73;;;4.70;;
75760;SDS011;64373;46.136;8.830;2023-01-29T00:25:05;12.38;;;5.60;;
75760;SDS011;64373;46.136;8.830;2023-01-29T00:27:31;10.00;;;4.60;;
75760;SDS011;64373;46.136;8.830;2023-01-29T00:29:57;9.68;;;4.20;;
75760;SDS011;64373;46.136;8.830;2023-01-29T00:32:38;6.53;;;3.50;;
75760;SDS011;64373;46.136;8.830;2023-01-29T00:35:05;7.85;;;3.70;;
75760;SDS011;64373;46.136;8.830;2023-01-29T00:37:31;6.65;;;2.97;;
75760;SDS011;64373;46.136;8.830;2023-01-29T00:39:57;5.85;;;2.88;;
75760;SDS011;64373;46.136;8.830;2023-01-29T00:42:23;7.75;;;3.38;;
75760;SDS011;64373;46.136;8.830;2023-01-29T00:45:07;6.85;;;3.20;;
75760;SDS011;64373;46.136;8.830;2023-01-29T00:47:33;7.85;;;3.28;;
75760;SDS011;64373;46.136;8.830;2023-01-29T00:50:00;6.88;;;3.33;;
75760;SDS011;64373;46.136;8.830;2023-01-29T00:52:35;7.90;;;4.22;;
75760;SDS011;64373;46.136;8.830;2023-01-29T00:55:01;8.35;;;3.90;;
75760;SDS011;64373;46.136;8.830;2023-01-29T00:57:28;8.85;;;3.03;;
75760;SDS011;64373;46.136;8.830;2023-01-29T00:59:55;6.18;;;3.30;;
75760;SDS011;64373;46.136;8.830;2023-01-29T01:02:20;8.93;;;3.65;;
75760;SDS011;64373;46.136;8.830;2023-01-29T01:05:05;6.72;;;3.28;;
75760;SDS011;64373;46.136;8.830;2023-01-29T01:07:32;8.93;;;4.03;;
75760;SDS011;64373;46.136;8.830;2023-01-29T01:09:57;5.53;;;2.97;;
75760;SDS011;64373;46.136;8.830;2023-01-29T01:12:42;7.72;;;3.33;;
75760;SDS011;64373;46.136;8.830;2023-01-29T01:15:08;12.95;;;4.57;;
75760;SDS011;64373;46.136;8.830;2023-01-29T01:17:34;5.90;;;2.72;;
75760;SDS011;64373;46.136;8.830;2023-01-29T01:20:00;7.05;;;3.47;;
75760;SDS011;64373;46.136;8.830;2023-01-29T01:22:25;8.82;;;3.95;;
75760;SDS011;64373;46.136;8.830;2023-01-29T01:24:51;7.53;;;3.72;;
75760;SDS011;64373;46.136;8.830;2023-01-29T01:27:17;6.13;;;2.50;;
75760;SDS011;64373;46.136;8.830;2023-01-29T01:29:44;6.57;;;3.30;;
75760;SDS011;64373;46.136;8.830;2023-01-29T01:35:32;6.32;;;2.97;;
75760;SDS011;64373;46.136;8.830;2023-01-29T01:37:57;8.02;;;4.32;;
75760;SDS011;64373;46.136;8.830;2023-01-29T01:40:24;8.38;;;3.80;;
75760;SDS011;64373;46.136;8.830;2023-01-29T01:42:51;9.30;;;4.10;;
75760;SDS011;64373;46.136;8.830;2023-01-29T01:45:29;6.68;;;2.92;;
75760;SDS011;64373;46.136;8.830;2023-01-29T01:53:02;6.35;;;2.65;;
75760;SDS011;64373;46.136;8.830;2023-01-29T01:55:31;7.95;;;3.20;;
75760;SDS011;64373;46.136;8.830;2023-01-29T02:00:44;8.43;;;4.43;;
75760;SDS011;64373;46.136;8.830;2023-01-29T02:03:10;9.57;;;3.60;;
75760;SDS011;64373;46.136;8.830;2023-01-29T02:05:55;5.13;;;2.63;;
75760;SDS011;64373;46.136;8.830;2023-01-29T02:11:30;6.80;;;2.67;;
75760;SDS011;64373;46.136;8.830;2023-01-29T02:13:55;3.40;;;1.70;;
75760;SDS011;64373;46.136;8.830;2023-01-29T02:16:21;3.72;;;1.80;;
75760;SDS011;64373;46.136;8.830;2023-01-29T02:18:48;3.13;;;1.83;;
75760;SDS011;64373;46.136;8.830;2023-01-29T02:21:18;5.45;;;2.55;;
75760;SDS011;64373;46.136;8.830;2023-01-29T02:24:10;5.55;;;2.63;;
75760;SDS011;64373;46.136;8.830;2023-01-29T02:26:56;6.72;;;3.28;;
75760;SDS011;64373;46.136;8.830;2023-01-29T02:29:46;4.95;;;2.58;;
75760;SDS011;64373;46.136;8.830;2023-01-29T02:35:21;4.57;;;2.10;;
75760;SDS011;64373;46.136;8.830;2023-01-29T02:40:54;5.45;;;2.58;;
75760;SDS011;64373;46.136;8.830;2023-01-29T02:43:26;6.30;;;3.50;;
75760;SDS011;64373;46.136;8.830;2023-01-29T02:54:59;8.13;;;3.60;;
75760;SDS011;64373;46.136;8.830;2023-01-29T02:57:46;5.63;;;2.35;;
75760;SDS011;64373;46.136;8.830;2023-01-29T03:00:23;8.15;;;3.72;;
75760;SDS011;64373;46.136;8.830;2023-01-29T03:02:54;6.97;;;3.15;;
75760;SDS011;64373;46.136;8.830;2023-01-29T03:05:25;5.70;;;3.53;;
75760;SDS011;64373;46.136;8.830;2023-01-29T03:07:57;6.25;;;2.88;;
75760;SDS011;64373;46.136;8.830;2023-01-29T03:13:19;6.07;;;2.55;;
75760;SDS011;64373;46.136;8.830;2023-01-29T03:16:17;7.05;;;3.88;;
75760;SDS011;64373;46.136;8.830;2023-01-29T03:18:56;10.05;;;4.35;;
75760;SDS011;64373;46.136;8.830;2023-01-29T03:22:08;7.03;;;3.13;;
75760;SDS011;64373;46.136;8.830;2023-01-29T03:24:45;8.50;;;4.05;;
75760;SDS011;64373;46.136;8.830;2023-01-29T03:27:32;8.07;;;3.40;;
75760;SDS011;64373;46.136;8.830;2023-01-29T03:30:21;6.63;;;3.13;;
75760;SDS011;64373;46.136;8.830;2023-01-29T03:33:09;8.85;;;4.55;;
75760;SDS011;64373;46.136;8.830;2023-01-29T03:35:37;9.30;;;4.32;;
75760;SDS011;64373;46.136;8.830;2023-01-29T03:38:09;8.23;;;4.10;;
75760;SDS011;64373;46.136;8.830;2023-01-29T03:40:42;9.18;;;4.63;;
75760;SDS011;64373;46.136;8.830;2023-01-29T03:45:57;5.03;;;2.42;;
75760;SDS011;64373;46.136;8.830;2023-01-29T03:48:30;5.78;;;2.70;;
75760;SDS011;64373;46.136;8.830;2023-01-29T03:53:50;6.60;;;2.78;;
75760;SDS011;64373;46.136;8.830;2023-01-29T03:59:01;6.00;;;2.80;;
75760;SDS011;64373;46.136;8.830;2023-01-29T04:01:50;5.40;;;2.90;;
75760;SDS011;64373;46.136;8.830;2023-01-29T04:04:31;5.85;;;2.72;;
75760;SDS011;64373;46.136;8.830;2023-01-29T04:07:16;7.88;;;3.42;;
75760;SDS011;64373;46.136;8.830;2023-01-29T04:09:58;5.38;;;2.65;;
75760;SDS011;64373;46.136;8.830;2023-01-29T04:12:29;9.43;;;4.32;;
75760;SDS011;64373;46.136;8.830;2023-01-29T04:15:00;5.10;;;2.83;;
75760;SDS011;64373;46.136;8.830;2023-01-29T04:17:27;8.32;;;3.90;;
75760;SDS011;64373;46.136;8.830;2023-01-29T04:19:58;6.05;;;2.95;;
75760;SDS011;64373;46.136;8.830;2023-01-29T04:22:26;6.43;;;3.42;;
75760;SDS011;64373;46.136;8.830;2023-01-29T04:24:56;6.28;;;3.22;;
75760;SDS011;64373;46.136;8.830;2023-01-29T04:41:01;4.28;;;1.98;;
75760;SDS011;64373;46.136;8.830;2023-01-29T04:43:35;6.15;;;2.53;;
75760;SDS011;64373;46.136;8.830;2023-01-29T04:49:17;6.75;;;2.97;;
75760;SDS011;64373;46.136;8.830;2023-01-29T04:52:22;6.85;;;3.40;;
75760;SDS011;64373;46.136;8.830;2023-01-29T04:57:28;6.03;;;2.63;;
75760;SDS011;64373;46.136;8.830;2023-01-29T05:02:44;7.85;;;3.72;;
75760;SDS011;64373;46.136;8.830;2023-01-29T05:05:10;6.47;;;2.83;;
75760;SDS011;64373;46.136;8.830;2023-01-29T05:07:37;6.88;;;3.42;;
75760;SDS011;64373;46.136;8.830;2023-01-29T05:10:04;4.75;;;2.45;;
75760;SDS011;64373;46.136;8.830;2023-01-29T05:12:31;8.40;;;3.65;;
75760;SDS011;64373;46.136;8.830;2023-01-29T05:14:59;7.78;;;3.38;;
75760;SDS011;64373;46.136;8.830;2023-01-29T05:17:26;4.85;;;2.60;;
75760;SDS011;64373;46.136;8.830;2023-01-29T05:19:53;4.78;;;2.60;;
75760;SDS011;64373;46.136;8.830;2023-01-29T05:22:19;6.00;;;3.00;;
75760;SDS011;64373;46.136;8.830;2023-01-29T05:24:47;7.43;;;3.40;;
75760;SDS011;64373;46.136;8.830;2023-01-29T05:27:28;5.15;;;2.65;;
75760;SDS011;64373;46.136;8.830;2023-01-29T05:30:14;4.40;;;2.05;;
75760;SDS011;64373;46.136;8.830;2023-01-29T05:32:40;4.60;;;2.22;;
75760;SDS011;64373;46.136;8.830;2023-01-29T05:35:06;9.02;;;3.97;;
75760;SDS011;64373;46.136;8.830;2023-01-29T05:37:31;7.30;;;3.15;;
75760;SDS011;64373;46.136;8.830;2023-01-29T05:39:57;5.40;;;2.67;;
75760;SDS011;64373;46.136;8.830;2023-01-29T05:42:22;7.05;;;3.22;;
75760;SDS011;64373;46.136;8.830;2023-01-29T05:44:48;6.25;;;2.97;;
75760;SDS011;64373;46.136;8.830;2023-01-29T05:47:17;4.80;;;2.80;;
75760;SDS011;64373;46.136;8.830;2023-01-29T05:49:43;6.30;;;2.60;;
75760;SDS011;64373;46.136;8.830;2023-01-29T05:52:09;7.65;;;3.72;;
75760;SDS011;64373;46.136;8.830;2023-01-29T05:54:34;3.47;;;2.10;;
75760;SDS011;64373;46.136;8.830;2023-01-29T05:57:00;7.63;;;3.10;;
75760;SDS011;64373;46.136;8.830;2023-01-29T05:59:25;4.30;;;1.95;;
75760;SDS011;64373;46.136;8.830;2023-01-29T06:01:51;4.68;;;2.95;;
75760;SDS011;64373;46.136;8.830;2023-01-29T06:04:16;5.28;;;3.10;;
75760;SDS011;64373;46.136;8.830;2023-01-29T06:06:42;5.57;;;3.03;;
75760;SDS011;64373;46.136;8.830;2023-01-29T06:09:08;6.72;;;3.65;;
75760;SDS011;64373;46.136;8.830;2023-01-29T06:11:35;6.00;;;2.85;;
75760;SDS011;64373;46.136;8.830;2023-01-29T06:14:00;3.65;;;1.92;;
75760;SDS011;64373;46.136;8.830;2023-01-29T06:16:26;5.60;;;2.47;;
75760;SDS011;64373;46.136;8.830;2023-01-29T06:18:51;4.55;;;2.38;;
75760;SDS011;64373;46.136;8.830;2023-01-29T06:21:17;4.28;;;2.10;;
75760;SDS011;64373;46.136;8.830;2023-01-29T06:23:42;3.63;;;1.88;;
75760;SDS011;64373;46.136;8.830;2023-01-29T06:26:11;3.10;;;1.58;;
75760;SDS011;64373;46.136;8.830;2023-01-29T06:28:38;3.47;;;1.67;;
75760;SDS011;64373;46.136;8.830;2023-01-29T06:31:03;4.13;;;2.00;;
75760;SDS011;64373;46.136;8.830;2023-01-29T06:33:30;3.15;;;1.52;;
75760;SDS011;64373;46.136;8.830;2023-01-29T06:35:56;4.35;;;1.85;;
75760;SDS011;64373;46.136;8.830;2023-01-29T06:38:23;5.18;;;2.58;;
75760;SDS011;64373;46.136;8.830;2023-01-29T06:40:49;4.75;;;2.25;;
75760;SDS011;64373;46.136;8.830;2023-01-29T06:43:14;5.05;;;2.63;;
75760;SDS011;64373;46.136;8.830;2023-01-29T06:45:53;3.92;;;1.92;;
75760;SDS011;64373;46.136;8.830;2023-01-29T06:48:20;4.35;;;1.65;;
75760;SDS011;64373;46.136;8.830;2023-01-29T06:50:46;5.93;;;2.22;;
75760;SDS011;64373;46.136;8.830;2023-01-29T06:53:13;5.10;;;2.40;;
75760;SDS011;64373;46.136;8.830;2023-01-29T06:55:39;4.05;;;2.28;;
75760;SDS011;64373;46.136;8.830;2023-01-29T06:58:06;2.95;;;1.67;;
75760;SDS011;64373;46.136;8.830;2023-01-29T07:00:32;5.60;;;2.60;;
75760;SDS011;64373;46.136;8.830;2023-01-29T07:02:58;4.63;;;2.53;;
75760;SDS011;64373;46.136;8.830;2023-01-29T07:05:24;4.85;;;3.03;;
75760;SDS011;64373;46.136;8.830;2023-01-29T07:07:50;5.90;;;2.35;;
75760;SDS011;64373;46.136;8.830;2023-01-29T07:10:15;4.22;;;1.58;;
75760;SDS011;64373;46.136;8.830;2023-01-29T07:12:41;4.15;;;2.05;;
75760;SDS011;64373;46.136;8.830;2023-01-29T07:15:07;2.88;;;1.50;;
75760;SDS011;64373;46.136;8.830;2023-01-29T07:17:33;4.40;;;2.13;;
75760;SDS011;64373;46.136;8.830;2023-01-29T07:19:58;3.67;;;1.85;;
75760;SDS011;64373;46.136;8.830;2023-01-29T07:22:24;3.80;;;1.52;;
75760;SDS011;64373;46.136;8.830;2023-01-29T07:24:49;4.78;;;1.73;;
75760;SDS011;64373;46.136;8.830;2023-01-29T07:27:14;4.88;;;2.25;;
75760;SDS011;64373;46.136;8.830;2023-01-29T07:29:40;6.38;;;1.63;;
75760;SDS011;64373;46.136;8.830;2023-01-29T07:32:05;5.95;;;2.53;;
75760;SDS011;64373;46.136;8.830;2023-01-29T07:34:32;4.75;;;2.38;;
75760;SDS011;64373;46.136;8.830;2023-01-29T07:36:57;5.20;;;2.10;;
75760;SDS011;64373;46.136;8.830;2023-01-29T07:39:23;3.40;;;1.33;;
75760;SDS011;64373;46.136;8.830;2023-01-29T07:41:49;2.85;;;1.10;;
75760;SDS011;64373;46.136;8.830;2023-01-29T07:44:15;2.75;;;1.20;;
75760;SDS011;64373;46.136;8.830;2023-01-29T07:46:40;4.00;;;2.20;;
75760;SDS011;64373;46.136;8.830;2023-01-29T07:49:06;3.92;;;2.20;;
75760;SDS011;64373;46.136;8.830;2023-01-29T07:51:31;5.35;;;2.72;;
75760;SDS011;64373;46.136;8.830;2023-01-29T07:53:57;5.80;;;2.40;;
75760;SDS011;64373;46.136;8.830;2023-01-29T07:56:22;3.75;;;1.60;;
75760;SDS011;64373;46.136;8.830;2023-01-29T07:58:48;5.20;;;3.10;;
75760;SDS011;64373;46.136;8.830;2023-01-29T08:01:13;4.07;;;1.80;;
75760;SDS011;64373;46.136;8.830;2023-01-29T08:03:39;5.25;;;2.17;;
75760;SDS011;64373;46.136;8.830;2023-01-29T08:06:05;2.63;;;1.42;;
75760;SDS011;64373;46.136;8.830;2023-01-29T08:08:30;2.88;;;1.10;;
75760;SDS011;64373;46.136;8.830;2023-01-29T08:10:56;5.57;;;2.85;;
75760;SDS011;64373;46.136;8.830;2023-01-29T08:13:25;3.55;;;2.22;;
75760;SDS011;64373;46.136;8.830;2023-01-29T08:15:50;3.53;;;1.75;;
75760;SDS011;64373;46.136;8.830;2023-01-29T08:18:16;7.32;;;3.17;;
75760;SDS011;64373;46.136;8.830;2023-01-29T08:20:41;5.57;;;2.58;;
75760;SDS011;64373;46.136;8.830;2023-01-29T08:23:09;6.47;;;2.72;;
75760;SDS011;64373;46.136;8.830;2023-01-29T08:25:39;5.85;;;2.50;;
75760;SDS011;64373;46.136;8.830;2023-01-29T08:28:04;4.47;;;2.33;;
75760;SDS011;64373;46.136;8.830;2023-01-29T08:30:31;4.95;;;1.92;;
75760;SDS011;64373;46.136;8.830;2023-01-29T08:32:58;4.72;;;1.90;;
75760;SDS011;64373;46.136;8.830;2023-01-29T08:35:24;3.03;;;1.38;;
75760;SDS011;64373;46.136;8.830;2023-01-29T08:37:53;3.08;;;0.80;;
75760;SDS011;64373;46.136;8.830;2023-01-29T08:40:23;2.75;;;1.40;;
75760;SDS011;64373;46.136;8.830;2023-01-29T08:42:49;2.42;;;1.23;;
75760;SDS011;64373;46.136;8.830;2023-01-29T08:45:14;2.72;;;1.25;;
75760;SDS011;64373;46.136;8.830;2023-01-29T08:47:49;3.60;;;1.48;;
75760;SDS011;64373;46.136;8.830;2023-01-29T08:50:15;4.30;;;1.85;;
75760;SDS011;64373;46.136;8.830;2023-01-29T08:52:41;6.82;;;2.28;;
75760;SDS011;64373;46.136;8.830;2023-01-29T08:55:08;5.93;;;2.67;;
75760;SDS011;64373;46.136;8.830;2023-01-29T08:57:33;3.42;;;1.88;;
75760;SDS011;64373;46.136;8.830;2023-01-29T08:59:59;3.97;;;1.67;;
75760;SDS011;64373;46.136;8.830;2023-01-29T09:02:24;3.22;;;1.40;;
75760;SDS011;64373;46.136;8.830;2023-01-29T09:04:50;2.78;;;1.52;;
75760;SDS011;64373;46.136;8.830;2023-01-29T09:07:15;2.28;;;1.35;;
75760;SDS011;64373;46.136;8.830;2023-01-29T09:09:41;3.08;;;1.02;;
75760;SDS011;64373;46.136;8.830;2023-01-29T09:12:06;6.60;;;2.33;;
75760;SDS011;64373;46.136;8.830;2023-01-29T09:14:32;4.70;;;1.92;;
75760;SDS011;64373;46.136;8.830;2023-01-29T09:16:57;3.60;;;1.63;;
75760;SDS011;64373;46.136;8.830;2023-01-29T09:19:23;4.43;;;2.47;;
75760;SDS011;64373;46.136;8.830;2023-01-29T09:21:48;4.75;;;2.33;;
75760;SDS011;64373;46.136;8.830;2023-01-29T09:24:14;4.32;;;2.22;;
75760;SDS011;64373;46.136;8.830;2023-01-29T09:26:40;3.78;;;2.10;;
75760;SDS011;64373;46.136;8.830;2023-01-29T09:29:05;3.75;;;1.73;;
75760;SDS011;64373;46.136;8.830;2023-01-29T09:31:33;2.28;;;1.23;;
75760;SDS011;64373;46.136;8.830;2023-01-29T09:33:58;3.72;;;1.65;;
75760;SDS011;64373;46.136;8.830;2023-01-29T09:36:24;2.53;;;1.10;;
75760;SDS011;64373;46.136;8.830;2023-01-29T09:38:49;2.80;;;1.75;;
75760;SDS011;64373;46.136;8.830;2023-01-29T09:43:54;6.05;;;2.90;;
75760;SDS011;64373;46.136;8.830;2023-01-29T09:49:02;4.88;;;2.03;;
75760;SDS011;64373;46.136;8.830;2023-01-29T09:51:36;4.15;;;1.83;;
75760;SDS011;64373;46.136;8.830;2023-01-29T09:56:38;5.97;;;2.42;;
75760;SDS011;64373;46.136;8.830;2023-01-29T09:59:06;5.00;;;2.78;;
75760;SDS011;64373;46.136;8.830;2023-01-29T10:10:38;3.85;;;2.10;;
75760;SDS011;64373;46.136;8.830;2023-01-29T10:16:02;4.78;;;1.77;;
75760;SDS011;64373;46.136;8.830;2023-01-29T10:24:25;4.57;;;2.00;;
75760;SDS011;64373;46.136;8.830;2023-01-29T10:27:01;4.18;;;1.88;;
75760;SDS011;64373;46.136;8.830;2023-01-29T10:29:27;4.40;;;2.15;;
75760;SDS011;64373;46.136;8.830;2023-01-29T10:31:55;3.22;;;1.60;;
75760;SDS011;64373;46.136;8.830;2023-01-29T10:34:30;2.10;;;1.05;;
75760;SDS011;64373;46.136;8.830;2023-01-29T10:36:59;2.40;;;0.85;;
75760;SDS011;64373;46.136;8.830;2023-01-29T10:39:26;2.05;;;0.82;;
75760;SDS011;64373;46.136;8.830;2023-01-29T10:44:37;5.00;;;2.58;;
75760;SDS011;64373;46.136;8.830;2023-01-29T10:53:32;3.97;;;2.50;;
75760;SDS011;64373;46.136;8.830;2023-01-29T11:01:23;7.07;;;3.00;;
75760;SDS011;64373;46.136;8.830;2023-01-29T11:04:01;5.80;;;2.53;;
75760;SDS011;64373;46.136;8.830;2023-01-29T11:06:32;6.20;;;2.20;;
75760;SDS011;64373;46.136;8.830;2023-01-29T11:11:49;4.55;;;2.00;;
75760;SDS011;64373;46.136;8.830;2023-01-29T11:17:05;6.28;;;2.88;;
75760;SDS011;64373;46.136;8.830;2023-01-29T11:19:41;5.95;;;2.70;;
75760;SDS011;64373;46.136;8.830;2023-01-29T11:22:12;4.00;;;1.80;;
75760;SDS011;64373;46.136;8.830;2023-01-29T11:24:39;3.92;;;1.45;;
75760;SDS011;64373;46.136;8.830;2023-01-29T11:27:12;4.22;;;1.80;;
75760;SDS011;64373;46.136;8.830;2023-01-29T11:29:50;5.50;;;2.85;;
75760;SDS011;64373;46.136;8.830;2023-01-29T11:35:33;2.90;;;1.48;;
75760;SDS011;64373;46.136;8.830;2023-01-29T11:37:40;5.15;;;2.17;;
75760;SDS011;64373;46.136;8.830;2023-01-29T11:42:48;4.63;;;2.53;;
75760;SDS011;64373;46.136;8.830;2023-01-29T11:45:27;3.47;;;1.60;;
75760;SDS011;64373;46.136;8.830;2023-01-29T11:47:56;7.47;;;2.75;;
75760;SDS011;64373;46.136;8.830;2023-01-29T11:50:27;4.93;;;2.55;;
75760;SDS011;64373;46.136;8.830;2023-01-29T11:52:54;4.78;;;2.67;;
75760;SDS011;64373;46.136;8.830;2023-01-29T11:55:20;6.22;;;2.80;;
75760;SDS011;64373;46.136;8.830;2023-01-29T11:57:49;5.88;;;2.13;;
75760;SDS011;64373;46.136;8.830;2023-01-29T12:00:20;4.40;;;1.65;;
75760;SDS011;64373;46.136;8.830;2023-01-29T12:03:33;4.70;;;2.25;;
75760;SDS011;64373;46.136;8.830;2023-01-29T12:05:37;3.42;;;1.80;;
75760;SDS011;64373;46.136;8.830;2023-01-29T12:08:09;5.35;;;2.13;;
75760;SDS011;64373;46.136;8.830;2023-01-29T12:10:40;5.18;;;2.80;;
75760;SDS011;64373;46.136;8.830;2023-01-29T12:15:39;3.53;;;1.95;;
75760;SDS011;64373;46.136;8.830;2023-01-29T12:18:52;5.47;;;2.60;;
75760;SDS011;64373;46.136;8.830;2023-01-29T12:26:13;2.88;;;1.60;;
75760;SDS011;64373;46.136;8.830;2023-01-29T12:34:00;2.90;;;1.50;;
75760;SDS011;64373;46.136;8.830;2023-01-29T12:36:31;2.67;;;1.27;;
75760;SDS011;64373;46.136;8.830;2023-01-29T12:39:24;2.63;;;1.05;;
75760;SDS011;64373;46.136;8.830;2023-01-29T12:41:59;1.85;;;1.10;;
75760;SDS011;64373;46.136;8.830;2023-01-29T12:44:38;2.28;;;0.90;;
75760;SDS011;64373;46.136;8.830;2023-01-29T12:47:10;2.58;;;1.20;;
75760;SDS011;64373;46.136;8.830;2023-01-29T12:49:46;2.53;;;1.13;;
75760;SDS011;64373;46.136;8.830;2023-01-29T12:55:15;2.75;;;1.30;;
75760;SDS011;64373;46.136;8.830;2023-01-29T13:00:22;2.35;;;1.02;;
75760;SDS011;64373;46.136;8.830;2023-01-29T13:02:54;1.52;;;0.80;;
75760;SDS011;64373;46.136;8.830;2023-01-29T13:05:35;2.22;;;0.82;;
75760;SDS011;64373;46.136;8.830;2023-01-29T13:08:07;1.75;;;1.10;;
75760;SDS011;64373;46.136;8.830;2023-01-29T13:10:47;2.58;;;1.00;;
75760;SDS011;64373;46.136;8.830;2023-01-29T13:13:15;2.17;;;1.10;;
75760;SDS011;64373;46.136;8.830;2023-01-29T13:15:46;1.13;;;0.75;;
75760;SDS011;64373;46.136;8.830;2023-01-29T13:18:32;2.13;;;1.10;;
75760;SDS011;64373;46.136;8.830;2023-01-29T13:21:03;2.50;;;1.20;;
75760;SDS011;64373;46.136;8.830;2023-01-29T13:23:33;1.88;;;1.08;;
75760;SDS011;64373;46.136;8.830;2023-01-29T13:26:01;1.67;;;0.98;;
75760;SDS011;64373;46.136;8.830;2023-01-29T13:28:27;2.10;;;1.10;;
75760;SDS011;64373;46.136;8.830;2023-01-29T13:31:10;2.38;;;1.38;;
75760;SDS011;64373;46.136;8.830;2023-01-29T13:36:43;2.50;;;1.25;;
75760;SDS011;64373;46.136;8.830;2023-01-29T13:39:26;1.90;;;0.98;;
75760;SDS011;64373;46.136;8.830;2023-01-29T13:44:24;1.98;;;0.80;;
75760;SDS011;64373;46.136;8.830;2023-01-29T13:47:52;1.33;;;0.90;;
75760;SDS011;64373;46.136;8.830;2023-01-29T13:52:45;1.55;;;0.85;;
75760;SDS011;64373;46.136;8.830;2023-01-29T14:10:38;2.92;;;1.70;;
75760;SDS011;64373;46.136;8.830;2023-01-29T14:16:32;3.42;;;1.70;;
75760;SDS011;64373;46.136;8.830;2023-01-29T14:18:29;4.05;;;1.90;;
75760;SDS011;64373;46.136;8.830;2023-01-29T14:20:57;3.22;;;1.80;;
75760;SDS011;64373;46.136;8.830;2023-01-29T14:26:16;2.58;;;1.33;;
75760;SDS011;64373;46.136;8.830;2023-01-29T14:31:38;3.25;;;1.30;;
75760;SDS011;64373;46.136;8.830;2023-01-29T14:34:05;2.13;;;0.82;;
75760;SDS011;64373;46.136;8.830;2023-01-29T14:36:39;2.38;;;0.90;;
75760;SDS011;64373;46.136;8.830;2023-01-29T14:39:05;2.22;;;0.82;;
75760;SDS011;64373;46.136;8.830;2023-01-29T14:41:40;2.20;;;1.02;;
75760;SDS011;64373;46.136;8.830;2023-01-29T14:49:59;2.80;;;1.30;;
75760;SDS011;64373;46.136;8.830;2023-01-29T14:52:39;2.75;;;1.45;;
75760;SDS011;64373;46.136;8.830;2023-01-29T14:55:08;2.50;;;1.30;;
75760;SDS011;64373;46.136;8.830;2023-01-29T14:57:50;2.95;;;1.48;;
75760;SDS011;64373;46.136;8.830;2023-01-29T15:00:25;2.58;;;1.20;;
75760;SDS011;64373;46.136;8.830;2023-01-29T15:02:52;2.85;;;1.15;;
75760;SDS011;64373;46.136;8.830;2023-01-29T15:05:21;2.20;;;0.85;;
75760;SDS011;64373;46.136;8.830;2023-01-29T15:13:03;1.60;;;0.85;;
75760;SDS011;64373;46.136;8.830;2023-01-29T15:15:41;1.55;;;0.93;;
75760;SDS011;64373;46.136;8.830;2023-01-29T15:20:43;2.83;;;0.90;;
75760;SDS011;64373;46.136;8.830;2023-01-29T15:23:25;2.50;;;1.25;;
75760;SDS011;64373;46.136;8.830;2023-01-29T15:25:52;2.40;;;1.00;;
75760;SDS011;64373;46.136;8.830;2023-01-29T15:28:23;2.28;;;1.25;;
75760;SDS011;64373;46.136;8.830;2023-01-29T15:30:52;2.13;;;1.02;;
75760;SDS011;64373;46.136;8.830;2023-01-29T15:33:19;2.33;;;1.33;;
75760;SDS011;64373;46.136;8.830;2023-01-29T15:35:45;2.85;;;1.38;;
75760;SDS011;64373;46.136;8.830;2023-01-29T15:38:18;3.63;;;1.40;;
75760;SDS011;64373;46.136;8.830;2023-01-29T15:40:55;3.28;;;1.95;;
75760;SDS011;64373;46.136;8.830;2023-01-29T15:43:26;5.18;;;2.50;;
75760;SDS011;64373;46.136;8.830;2023-01-29T15:45:56;4.95;;;2.38;;
75760;SDS011;64373;46.136;8.830;2023-01-29T15:48:30;3.80;;;1.90;;
75760;SDS011;64373;46.136;8.830;2023-01-29T15:50:59;3.40;;;1.58;;
75760;SDS011;64373;46.136;8.830;2023-01-29T15:53:31;3.47;;;1.60;;
75760;SDS011;64373;46.136;8.830;2023-01-29T15:55:59;4.28;;;1.95;;
75760;SDS011;64373;46.136;8.830;2023-01-29T15:58:29;4.95;;;2.50;;
75760;SDS011;64373;46.136;8.830;2023-01-29T16:00:56;3.95;;;1.98;;
75760;SDS011;64373;46.136;8.830;2023-01-29T16:03:24;6.95;;;2.78;;
75760;SDS011;64373;46.136;8.830;2023-01-29T16:05:52;7.10;;;4.35;;
75760;SDS011;64373;46.136;8.830;2023-01-29T16:08:22;8.63;;;4.60;;
75760;SDS011;64373;46.136;8.830;2023-01-29T16:10:52;6.43;;;3.50;;
75760;SDS011;64373;46.136;8.830;2023-01-29T16:13:24;9.25;;;4.50;;
75760;SDS011;64373;46.136;8.830;2023-01-29T16:15:58;6.68;;;3.42;;
75760;SDS011;64373;46.136;8.830;2023-01-29T16:18:31;9.73;;;5.07;;
75760;SDS011;64373;46.136;8.830;2023-01-29T16:21:00;11.48;;;5.03;;
75760;SDS011;64373;46.136;8.830;2023-01-29T16:23:30;7.18;;;3.47;;
75760;SDS011;64373;46.136;8.830;2023-01-29T16:26:04;5.97;;;3.00;;
75760;SDS011;64373;46.136;8.830;2023-01-29T16:28:31;4.47;;;2.58;;
75760;SDS011;64373;46.136;8.830;2023-01-29T16:30:57;4.65;;;2.50;;
75760;SDS011;64373;46.136;8.830;2023-01-29T16:33:29;6.20;;;3.05;;
75760;SDS011;64373;46.136;8.830;2023-01-29T16:35:57;6.20;;;3.13;;
75760;SDS011;64373;46.136;8.830;2023-01-29T16:38:27;5.40;;;2.80;;
75760;SDS011;64373;46.136;8.830;2023-01-29T16:43:45;6.78;;;3.10;;
75760;SDS011;64373;46.136;8.830;2023-01-29T16:46:22;7.03;;;2.88;;
75760;SDS011;64373;46.136;8.830;2023-01-29T16:48:52;6.35;;;3.10;;
75760;SDS011;64373;46.136;8.830;2023-01-29T16:53:52;6.65;;;3.13;;
75760;SDS011;64373;46.136;8.830;2023-01-29T16:56:19;6.82;;;3.17;;
75760;SDS011;64373;46.136;8.830;2023-01-29T16:58:49;4.80;;;2.42;;
75760;SDS011;64373;46.136;8.830;2023-01-29T17:01:16;6.55;;;2.55;;
75760;SDS011;64373;46.136;8.830;2023-01-29T17:03:42;9.13;;;4.30;;
75760;SDS011;64373;46.136;8.830;2023-01-29T17:06:11;5.95;;;3.17;;
75760;SDS011;64373;46.136;8.830;2023-01-29T17:08:43;7.05;;;3.50;;
75760;SDS011;64373;46.136;8.830;2023-01-29T17:11:09;7.68;;;3.83;;
75760;SDS011;64373;46.136;8.830;2023-01-29T17:13:41;5.93;;;2.75;;
75760;SDS011;64373;46.136;8.830;2023-01-29T17:16:27;9.88;;;4.10;;
75760;SDS011;64373;46.136;8.830;2023-01-29T17:18:55;7.55;;;3.10;;
75760;SDS011;64373;46.136;8.830;2023-01-29T17:21:21;5.07;;;2.80;;
75760;SDS011;64373;46.136;8.830;2023-01-29T17:23:47;6.60;;;2.80;;
75760;SDS011;64373;46.136;8.830;2023-01-29T17:26:13;5.97;;;2.85;;
75760;SDS011;64373;46.136;8.830;2023-01-29T17:28:39;7.88;;;2.70;;
75760;SDS011;64373;46.136;8.830;2023-01-29T17:31:05;6.40;;;3.22;;
75760;SDS011;64373;46.136;8.830;2023-01-29T17:33:38;5.85;;;2.80;;
75760;SDS011;64373;46.136;8.830;2023-01-29T17:36:09;8.23;;;3.92;;
75760;SDS011;64373;46.136;8.830;2023-01-29T17:38:36;8.50;;;3.92;;
75760;SDS011;64373;46.136;8.830;2023-01-29T17:41:05;7.78;;;4.28;;
75760;SDS011;64373;46.136;8.830;2023-01-29T17:43:33;8.35;;;4.60;;
75760;SDS011;64373;46.136;8.830;2023-01-29T17:45:59;9.70;;;4.50;;
75760;SDS011;64373;46.136;8.830;2023-01-29T17:48:25;6.38;;;3.53;;
75760;SDS011;64373;46.136;8.830;2023-01-29T17:50:53;7.70;;;3.85;;
75760;SDS011;64373;46.136;8.830;2023-01-29T17:53:20;7.68;;;3.25;;
75760;SDS011;64373;46.136;8.830;2023-01-29T17:55:47;10.43;;;4.32;;
75760;SDS011;64373;46.136;8.830;2023-01-29T17:58:19;11.23;;;5.57;;
75760;SDS011;64373;46.136;8.830;2023-01-29T18:00:49;10.27;;;4.47;;
75760;SDS011;64373;46.136;8.830;2023-01-29T18:03:16;10.30;;;4.95;;
75760;SDS011;64373;46.136;8.830;2023-01-29T18:05:41;9.05;;;3.85;;
75760;SDS011;64373;46.136;8.830;2023-01-29T18:10:57;11.38;;;5.63;;